createdAt,value
2017-11-24T00:02:14.001Z,72.50
2017-11-24T00:04:41.064Z,73.10
2017-11-24T00:07:07.360Z,71.90
2017-11-24T00:09:34.396Z,73.00
2017-11-24T00:12:01.504Z,72.50
2017-11-24T00:14:27.797Z,71.90
2017-11-24T00:16:54.102Z,71.80
2017-11-24T00:19:20.429Z,71.40
2017-11-24T00:21:46.692Z,72.10
2017-11-24T00:24:13.721Z,73.20
2017-11-24T00:26:40.787Z,72.70
2017-11-24T00:29:07.083Z,73.20
2017-11-24T00:31:33.385Z,73.40
2017-11-24T00:34:00.447Z,74.40
2017-11-24T00:36:26.745Z,73.20
2017-11-24T00:38:53.757Z,74.30
2017-11-24T00:41:20.186Z,73.80
2017-11-24T00:43:47.214Z,74.60
2017-11-24T00:46:14.266Z,74.20
2017-11-24T00:48:40.561Z,74.20
2017-11-24T00:51:06.857Z,74.30
2017-11-24T00:53:33.132Z,74.30
2017-11-24T00:55:59.406Z,74.60
2017-11-24T00:58:26.424Z,75.90
2017-11-24T01:00:52.685Z,76.10
2017-11-24T01:03:19.005Z,74.90
2017-11-24T01:05:45.285Z,75.70
2017-11-24T01:08:12.281Z,75.10
2017-11-24T01:10:38.581Z,74.60
2017-11-24T01:13:04.835Z,73.90
2017-11-24T01:15:31.116Z,73.90
2017-11-24T01:17:57.433Z,74.00
2017-11-24T01:20:23.728Z,73.90
2017-11-24T01:22:49.990Z,73.90
2017-11-24T01:25:16.281Z,73.90
2017-11-24T01:27:42.523Z,73.90
2017-11-24T01:30:08.824Z,74.20
2017-11-24T01:32:35.143Z,73.80
2017-11-24T01:35:01.429Z,73.20
2017-11-24T01:37:27.706Z,73.90
2017-11-24T01:39:54.756Z,74.20
2017-11-24T01:42:21.049Z,73.80
2017-11-24T01:44:48.068Z,73.40
2017-11-24T01:47:14.394Z,73.10
2017-11-24T01:49:41.418Z,74.40
2017-11-24T01:52:08.449Z,74.40
2017-11-24T01:54:34.762Z,73.80
2017-11-24T01:57:01.049Z,74.50
2017-11-24T01:59:27.361Z,74.60
2017-11-24T02:01:53.692Z,74.40
2017-11-24T02:04:19.969Z,74.80
2017-11-24T02:06:46.250Z,74.40
2017-11-24T02:09:13.314Z,74.90
2017-11-24T02:11:39.585Z,74.30
2017-11-24T02:14:05.897Z,73.80
2017-11-24T02:16:32.193Z,74.40
2017-11-24T02:18:58.490Z,73.90
2017-11-24T02:21:24.819Z,74.80
2017-11-24T02:23:51.170Z,74.20
2017-11-24T02:26:17.481Z,73.60
2017-11-24T02:28:43.778Z,73.80
2017-11-24T02:31:10.093Z,73.70
2017-11-24T02:33:36.554Z,73.40
2017-11-24T02:36:02.999Z,73.10
2017-11-24T02:38:30.209Z,71.90
2017-11-24T02:40:56.651Z,72.10
2017-11-24T02:43:22.984Z,71.80
2017-11-24T02:45:49.312Z,71.80
2017-11-24T02:48:15.626Z,71.50
2017-11-24T02:50:41.952Z,70.80
2017-11-24T02:53:08.283Z,71.40
2017-11-24T02:55:34.605Z,71.60
2017-11-24T02:58:00.925Z,71.40
2017-11-24T03:00:27.240Z,71.30
2017-11-24T03:02:53.555Z,70.80
2017-11-24T03:05:19.862Z,71.80
2017-11-24T03:07:46.212Z,71.40
2017-11-24T03:10:12.536Z,71.20
2017-11-24T03:12:38.826Z,71.10
2017-11-24T03:15:05.183Z,71.10
2017-11-24T03:17:31.588Z,71.20
2017-11-24T03:19:57.863Z,71.80
2017-11-24T03:22:24.201Z,71.60
2017-11-24T03:24:50.485Z,71.40
2017-11-24T03:27:16.778Z,71.70
2017-11-24T03:29:43.093Z,72.00
2017-11-24T03:32:09.409Z,71.50
2017-11-24T03:34:35.734Z,72.00
2017-11-24T03:37:02.058Z,72.40
2017-11-24T03:39:28.389Z,72.40
2017-11-24T03:41:54.704Z,72.80
2017-11-24T03:44:21.052Z,73.00
2017-11-24T03:46:48.093Z,73.60
2017-11-24T03:49:15.141Z,73.20
2017-11-24T03:51:41.528Z,73.00
2017-11-24T03:54:07.816Z,73.00
2017-11-24T03:56:34.110Z,73.30
2017-11-24T03:59:00.441Z,73.40
2017-11-24T04:01:26.769Z,73.40
2017-11-24T04:03:53.092Z,73.30
2017-11-24T04:06:19.428Z,73.30
2017-11-24T04:08:46.506Z,73.90
2017-11-24T04:11:12.848Z,73.60
2017-11-24T04:13:39.180Z,74.30
2017-11-24T04:16:05.481Z,73.80
2017-11-24T04:18:31.788Z,73.50
2017-11-24T04:20:58.119Z,73.80
2017-11-24T04:23:24.447Z,73.80
2017-11-24T04:25:50.744Z,73.30
2017-11-24T04:28:17.802Z,74.40
2017-11-24T04:30:44.096Z,73.60
2017-11-24T04:33:10.362Z,73.70
2017-11-24T04:35:36.677Z,73.80
2017-11-24T04:38:02.977Z,73.80
2017-11-24T04:40:29.285Z,73.50
2017-11-24T04:42:56.381Z,74.10
2017-11-24T04:45:22.701Z,73.40
2017-11-24T04:47:49.023Z,73.40
2017-11-24T04:50:15.323Z,73.10
2017-11-24T04:52:41.636Z,73.50
2017-11-24T04:55:07.930Z,73.30
2017-11-24T04:57:34.244Z,73.00
2017-11-24T05:00:00.510Z,73.20
2017-11-24T05:02:26.794Z,73.20
2017-11-24T05:04:53.084Z,73.10
2017-11-24T05:07:19.386Z,73.40
2017-11-24T05:09:45.679Z,73.40
2017-11-24T05:12:11.973Z,73.30
2017-11-24T05:14:38.271Z,73.10
2017-11-24T05:17:04.599Z,73.20
2017-11-24T05:19:30.919Z,74.30
2017-11-24T05:21:57.231Z,73.80
2017-11-24T05:24:23.524Z,74.80
2017-11-24T05:26:49.840Z,74.70
2017-11-24T05:29:16.123Z,75.40
2017-11-24T05:31:43.250Z,76.50
2017-11-24T05:34:09.568Z,76.10
2017-11-24T05:36:35.833Z,76.60
2017-11-24T05:39:02.171Z,76.80
2017-11-24T05:41:28.448Z,77.00
2017-11-24T05:43:54.735Z,77.10
2017-11-24T05:46:21.749Z,78.90
2017-11-24T05:48:48.058Z,78.30
2017-11-24T05:51:14.324Z,78.50
2017-11-24T05:53:40.586Z,78.60
2017-11-24T05:56:06.884Z,78.60
2017-11-24T05:58:33.172Z,79.30
2017-11-24T06:00:59.459Z,78.90
2017-11-24T06:03:25.764Z,78.60
2017-11-24T06:05:52.082Z,79.60
2017-11-24T06:08:18.374Z,78.60
2017-11-24T06:10:44.705Z,78.90
2017-11-24T06:13:11.054Z,78.70
2017-11-24T06:15:38.124Z,78.90
2017-11-24T06:18:04.449Z,78.20
2017-11-24T06:20:30.718Z,78.00
2017-11-24T06:22:57.823Z,78.60
2017-11-24T06:25:24.113Z,77.70
2017-11-24T06:27:50.380Z,78.60
2017-11-24T06:30:16.665Z,77.00
2017-11-24T06:32:42.959Z,77.30
2017-11-24T06:35:09.242Z,77.30
2017-11-24T06:37:35.534Z,77.60
2017-11-24T06:40:02.636Z,77.20
2017-11-24T06:42:28.888Z,77.30
2017-11-24T06:44:55.911Z,78.20
2017-11-24T06:47:22.208Z,77.20
2017-11-24T06:49:48.467Z,77.50
2017-11-24T06:52:15.915Z,77.80
2017-11-24T06:54:42.968Z,78.90
2017-11-24T06:57:09.638Z,78.00
2017-11-24T06:59:35.924Z,77.70
2017-11-24T07:02:02.252Z,78.10
2017-11-24T07:04:28.561Z,78.20
2017-11-24T07:06:54.886Z,78.40
2017-11-24T07:09:21.223Z,77.60
2017-11-24T07:11:48.529Z,79.00
2017-11-24T07:14:14.820Z,78.30
2017-11-24T07:16:41.187Z,78.50
2017-11-24T07:19:07.576Z,78.00
2017-11-24T07:21:33.847Z,78.50
2017-11-24T07:24:00.135Z,78.60
2017-11-24T07:26:26.418Z,78.50
2017-11-24T07:28:52.704Z,77.70
2017-11-24T07:31:18.999Z,77.90
2017-11-24T07:33:46.019Z,78.30
2017-11-24T07:36:13.023Z,78.30
2017-11-24T07:38:39.340Z,77.60
2017-11-24T07:41:05.611Z,77.10
2017-11-24T07:43:31.891Z,77.20
2017-11-24T07:45:58.168Z,77.40
2017-11-24T07:48:24.607Z,77.90
2017-11-24T07:50:50.889Z,77.00
2017-11-24T07:53:17.180Z,77.10
2017-11-24T07:55:43.452Z,77.30
2017-11-24T07:58:09.720Z,77.80
2017-11-24T08:00:36.043Z,78.00
2017-11-24T08:03:02.321Z,78.40
2017-11-24T08:05:29.391Z,78.00
2017-11-24T08:07:55.699Z,77.70
2017-11-24T08:10:21.977Z,78.10
2017-11-24T08:12:48.261Z,78.10
2017-11-24T08:15:14.577Z,77.90
2017-11-24T08:17:40.855Z,77.00
2017-11-24T08:20:07.173Z,76.30
2017-11-24T08:22:33.563Z,76.50
2017-11-24T08:25:00.653Z,77.10
2017-11-24T08:27:26.989Z,76.50
2017-11-24T08:29:53.311Z,76.00
2017-11-24T08:32:19.574Z,75.80
2017-11-24T08:34:45.886Z,75.40
2017-11-24T08:37:12.229Z,75.70
2017-11-24T08:39:38.488Z,75.50
2017-11-24T08:42:04.768Z,75.30
2017-11-24T08:44:31.344Z,75.50
2017-11-24T08:47:04.385Z,76.10
2017-11-24T08:49:37.039Z,75.50
2017-11-24T08:52:03.304Z,75.70
2017-11-24T08:54:29.957Z,75.70
2017-11-24T08:56:56.258Z,76.10
2017-11-24T08:59:22.524Z,75.50
2017-11-24T09:01:48.788Z,75.10
2017-11-24T09:04:15.099Z,76.00
2017-11-24T09:06:41.371Z,75.20
2017-11-24T09:09:07.648Z,74.80
2017-11-24T09:11:33.976Z,74.80
2017-11-24T09:14:00.272Z,74.60
2017-11-24T09:16:26.538Z,73.90
2017-11-24T09:18:52.837Z,74.40
2017-11-24T09:21:19.110Z,75.00
2017-11-24T09:23:45.365Z,74.20
2017-11-24T09:26:11.643Z,73.80
2017-11-24T09:28:37.971Z,73.30
2017-11-24T09:31:10.368Z,73.20
2017-11-24T09:33:43.924Z,73.20
2017-11-24T09:36:16.763Z,72.20
2017-11-24T09:38:49.277Z,71.80
2017-11-24T09:41:22.609Z,72.50
2017-11-24T09:43:55.909Z,72.70
2017-11-24T09:46:28.697Z,72.40
2017-11-24T09:49:01.251Z,72.40
2017-11-24T09:51:33.648Z,72.70
2017-11-24T09:54:08.019Z,72.30
2017-11-24T09:56:40.601Z,72.30
2017-11-24T09:59:13.335Z,72.00
2017-11-24T10:01:45.759Z,71.80
2017-11-24T10:04:18.755Z,71.50
2017-11-24T10:06:51.269Z,71.00
2017-11-24T10:09:24.847Z,71.50
2017-11-24T10:11:57.276Z,70.90
2017-11-24T10:14:31.303Z,71.50
2017-11-24T10:17:05.192Z,70.60
2017-11-24T10:19:38.708Z,71.40
2017-11-24T10:22:17.539Z,70.50
2017-11-24T10:24:50.667Z,71.10
2017-11-24T10:27:23.342Z,70.40
2017-11-24T10:29:56.501Z,71.00
2017-11-24T10:32:29.958Z,70.70
2017-11-24T10:35:02.631Z,70.20
2017-11-24T10:37:35.709Z,71.50
2017-11-24T10:40:08.445Z,70.40
2017-11-24T10:42:42.461Z,71.70
2017-11-24T10:45:16.088Z,71.30
2017-11-24T10:47:48.674Z,70.90
2017-11-24T10:50:21.016Z,70.50
2017-11-24T10:52:54.399Z,70.80
2017-11-24T10:55:26.784Z,70.70
2017-11-24T10:58:00.033Z,70.30
2017-11-24T11:00:33.267Z,70.90
2017-11-24T11:03:05.903Z,70.40
2017-11-24T11:05:38.320Z,70.80
2017-11-24T11:08:10.726Z,71.00
2017-11-24T11:10:43.280Z,71.40
2017-11-24T11:13:15.594Z,71.90
2017-11-24T11:15:48.947Z,73.20
2017-11-24T11:18:21.607Z,72.80
2017-11-24T11:20:53.964Z,71.90
2017-11-24T11:23:26.458Z,71.80
2017-11-24T11:25:59.933Z,72.60
2017-11-24T11:29:31.992Z,72.30
2017-11-24T11:32:05.218Z,71.40
2017-11-24T11:34:37.758Z,70.80
2017-11-24T11:37:10.970Z,71.20
2017-11-24T11:39:43.617Z,70.60
2017-11-24T11:42:16.016Z,70.00
2017-11-24T11:44:49.311Z,69.40
2017-11-24T11:47:22.629Z,69.10
2017-11-24T11:49:56.664Z,71.00
2017-11-24T11:52:29.978Z,70.60
2017-11-24T11:55:02.812Z,69.70
2017-11-24T11:57:36.172Z,69.40
2017-11-24T12:00:08.555Z,69.20
2017-11-24T12:02:40.928Z,69.40
2017-11-24T12:05:14.287Z,69.10
2017-11-24T12:07:46.859Z,69.00
2017-11-24T12:10:19.221Z,68.90
2017-11-24T12:12:53.212Z,69.60
2017-11-24T12:15:26.095Z,68.70
2017-11-24T12:17:58.724Z,69.10
2017-11-24T12:20:31.787Z,68.60
2017-11-24T12:23:04.541Z,68.90
2017-11-24T12:25:37.840Z,69.10
2017-11-24T12:28:11.067Z,70.10
2017-11-24T12:30:44.439Z,69.20
2017-11-24T12:33:17.340Z,69.20
2017-11-24T12:35:49.669Z,69.80
2017-11-24T12:38:22.817Z,70.60
2017-11-24T12:40:55.589Z,69.50
2017-11-24T12:43:28.173Z,69.40
2017-11-24T12:46:00.481Z,70.00
2017-11-24T12:48:33.885Z,70.20
2017-11-24T12:51:07.544Z,70.70
2017-11-24T12:53:40.410Z,69.80
2017-11-24T12:56:12.737Z,69.90
2017-11-24T12:58:45.991Z,70.70
2017-11-24T13:01:18.703Z,69.80
2017-11-24T13:03:51.139Z,70.30
2017-11-24T13:06:23.868Z,70.50
2017-11-24T13:08:56.220Z,69.80
2017-11-24T13:11:30.188Z,70.60
2017-11-24T13:14:02.968Z,69.90
2017-11-24T13:16:35.417Z,69.80
2017-11-24T13:19:08.717Z,69.60
2017-11-24T13:21:42.719Z,70.80
2017-11-24T13:24:15.514Z,70.10
2017-11-24T13:26:48.837Z,70.90
2017-11-24T13:29:21.575Z,69.70
2017-11-24T13:31:54.780Z,71.30
2017-11-24T13:34:27.485Z,70.60
2017-11-24T13:36:59.881Z,70.70
2017-11-24T13:39:33.183Z,71.70
2017-11-24T13:42:05.841Z,70.70
2017-11-24T13:44:39.143Z,70.70
2017-11-24T13:47:11.690Z,70.20
2017-11-24T13:49:44.764Z,70.50
2017-11-24T13:52:18.136Z,71.40
2017-11-24T13:54:50.873Z,70.70
2017-11-24T13:57:23.669Z,70.60
2017-11-24T13:59:57.155Z,70.80
2017-11-24T14:02:30.025Z,71.20
2017-11-24T14:05:03.417Z,71.10
2017-11-24T14:07:35.883Z,70.90
2017-11-24T14:10:10.031Z,72.10
2017-11-24T14:12:42.991Z,71.00
2017-11-24T14:15:16.958Z,71.30
2017-11-24T14:17:50.268Z,71.70
2017-11-24T14:20:23.283Z,71.50
2017-11-24T14:22:57.049Z,71.20
2017-11-24T14:25:33.332Z,72.00
2017-11-24T14:28:06.016Z,71.50
2017-11-24T14:30:40.052Z,71.80
2017-11-24T14:33:13.410Z,72.40
2017-11-24T14:35:46.116Z,72.30
2017-11-24T14:38:19.736Z,73.40
2017-11-24T14:40:53.755Z,73.90
2017-11-24T14:43:27.220Z,73.30
2017-11-24T14:46:00.247Z,73.50
2017-11-24T14:48:34.035Z,73.70
2017-11-24T14:51:07.763Z,73.90
2017-11-24T14:53:41.203Z,73.20
2017-11-24T14:56:14.285Z,73.20
2017-11-24T14:58:46.637Z,73.30
2017-11-24T15:01:19.985Z,74.10
2017-11-24T15:03:52.685Z,73.30
2017-11-24T15:06:25.946Z,73.90
2017-11-24T15:08:58.671Z,73.30
2017-11-24T15:11:31.896Z,73.90
2017-11-24T15:14:04.526Z,74.00
2017-11-24T15:16:37.344Z,73.30
2017-11-24T15:19:09.723Z,73.90
2017-11-24T15:21:43.112Z,73.90
2017-11-24T15:24:15.937Z,73.40
2017-11-24T15:26:48.484Z,73.40
2017-11-24T15:29:22.432Z,74.80
2017-11-24T15:31:56.079Z,74.10
2017-11-24T15:34:29.159Z,74.00
2017-11-24T15:37:01.653Z,72.20
2017-11-24T15:39:34.783Z,76.80
2017-11-24T15:42:07.536Z,75.90
2017-11-24T15:44:40.088Z,77.60
2017-11-24T15:47:13.695Z,79.80
2017-11-24T15:49:46.843Z,81.00
2017-11-24T15:52:19.434Z,81.40
2017-11-24T15:54:51.828Z,81.80
2017-11-24T15:57:24.249Z,83.10
2017-11-24T15:59:56.799Z,83.40
2017-11-24T16:02:29.317Z,83.20
2017-11-24T16:05:01.713Z,83.80
2017-11-24T16:07:34.143Z,83.80
2017-11-24T16:10:06.676Z,83.70
2017-11-24T16:12:39.219Z,84.60
2017-11-24T16:15:11.590Z,85.00
2017-11-24T16:17:44.162Z,84.80
2017-11-24T16:20:17.472Z,85.00
2017-11-24T16:22:50.227Z,85.10
2017-11-24T16:25:23.795Z,84.50
2017-11-24T16:27:57.961Z,85.20
2017-11-24T16:30:30.420Z,84.50
2017-11-24T16:33:03.133Z,86.10
2017-11-24T16:35:36.395Z,84.80
2017-11-24T16:38:09.494Z,84.40
2017-11-24T16:40:42.760Z,84.30
2017-11-24T16:43:15.428Z,84.30
2017-11-24T16:45:49.418Z,85.70
2017-11-24T16:48:22.164Z,85.00
2017-11-24T16:50:54.626Z,85.00
2017-11-24T16:53:27.207Z,85.00
2017-11-24T16:56:00.280Z,85.60
2017-11-24T16:58:33.000Z,85.00
2017-11-24T17:01:06.126Z,86.00
2017-11-24T17:03:38.836Z,84.90
2017-11-24T17:06:12.131Z,84.90
2017-11-24T17:08:46.179Z,85.90
2017-11-24T17:11:19.659Z,85.80
2017-11-24T17:13:52.526Z,85.40
2017-11-24T17:16:26.527Z,85.40
2017-11-24T17:19:00.133Z,85.90
2017-11-24T17:21:32.682Z,85.70
2017-11-24T17:24:05.065Z,86.40
2017-11-24T17:26:39.232Z,86.60
2017-11-24T17:29:12.252Z,86.00
2017-11-24T17:31:46.381Z,86.20
2017-11-24T17:34:19.795Z,86.30
2017-11-24T17:36:53.444Z,87.70
2017-11-24T17:39:26.335Z,87.00
2017-11-24T17:42:00.576Z,88.10
2017-11-24T17:44:34.236Z,89.30
2017-11-24T17:47:07.691Z,88.80
2017-11-24T17:49:40.401Z,88.00
2017-11-24T17:52:12.821Z,88.50
2017-11-24T17:54:46.196Z,87.80
2017-11-24T17:57:18.673Z,87.60
2017-11-24T17:59:51.215Z,87.90
2017-11-24T18:02:23.868Z,88.10
2017-11-24T18:04:57.164Z,88.60
2017-11-24T18:07:30.587Z,88.90
2017-11-24T18:10:03.234Z,88.10
2017-11-24T18:12:37.194Z,88.80
2017-11-24T18:15:10.619Z,88.70
2017-11-24T18:17:43.939Z,88.20
2017-11-24T18:20:16.711Z,87.90
2017-11-24T18:22:49.820Z,89.00
2017-11-24T18:25:23.404Z,87.40
2017-11-24T18:27:56.181Z,87.90
2017-11-24T18:30:28.639Z,87.80
2017-11-24T18:33:01.758Z,88.30
2017-11-24T18:35:35.210Z,88.90
2017-11-24T18:38:08.023Z,87.80
2017-11-24T18:40:40.566Z,87.90
2017-11-24T18:43:12.987Z,88.50
2017-11-24T18:45:45.360Z,89.10
2017-11-24T18:48:17.896Z,88.90
2017-11-24T18:50:51.890Z,88.60
2017-11-24T18:53:25.331Z,89.70
2017-11-24T18:55:58.241Z,89.20
2017-11-24T18:58:31.199Z,88.80
2017-11-24T19:01:04.435Z,88.60
2017-11-24T19:03:37.940Z,89.40
2017-11-24T19:06:10.917Z,88.80
2017-11-24T19:08:44.156Z,88.90
2017-11-24T19:11:17.371Z,89.30
2017-11-24T19:13:49.868Z,88.40
2017-11-24T19:16:22.383Z,88.40
2017-11-24T19:18:55.639Z,88.10
2017-11-24T19:21:28.038Z,88.60
2017-11-24T19:24:00.452Z,88.50
2017-11-24T19:26:34.653Z,89.10
2017-11-24T19:29:07.182Z,88.10
2017-11-24T19:31:39.780Z,88.20
2017-11-24T19:34:13.056Z,87.60
2017-11-24T19:36:46.294Z,88.00
2017-11-24T19:39:18.636Z,87.60
2017-11-24T19:41:51.908Z,87.80
2017-11-24T19:44:25.111Z,87.60
2017-11-24T19:46:58.572Z,87.80
2017-11-24T19:49:32.182Z,88.10
2017-11-24T19:52:04.841Z,87.30
2017-11-24T19:54:37.970Z,88.70
2017-11-24T19:57:11.691Z,88.50
2017-11-24T19:59:45.296Z,89.00
2017-11-24T20:02:18.467Z,88.40
2017-11-24T20:04:50.907Z,88.10
2017-11-24T20:07:24.249Z,88.20
2017-11-24T20:09:57.639Z,89.10
2017-11-24T20:12:31.203Z,89.40
2017-11-24T20:15:04.913Z,89.60
2017-11-24T20:17:38.745Z,89.40
2017-11-24T20:20:11.360Z,88.80
2017-11-24T20:22:45.370Z,89.80
2017-11-24T20:25:18.112Z,88.80
2017-11-24T20:27:51.229Z,89.50
2017-11-24T20:30:23.876Z,89.10
2017-11-24T20:32:56.273Z,88.70
2017-11-24T20:35:30.362Z,90.00
2017-11-24T20:38:02.959Z,89.10
2017-11-24T20:40:36.107Z,90.00
2017-11-24T20:43:08.906Z,89.00
2017-11-24T20:45:42.000Z,88.70
2017-11-24T20:48:14.419Z,89.30
2017-11-24T20:50:46.860Z,89.20
2017-11-24T20:53:20.124Z,88.80
2017-11-24T20:55:53.275Z,89.00
2017-11-24T20:58:27.278Z,90.10
2017-11-24T21:01:00.043Z,88.80
2017-11-24T21:03:32.643Z,89.00
2017-11-24T21:06:05.869Z,89.70
2017-11-24T21:08:39.186Z,88.40
2017-11-24T21:11:13.656Z,88.10
2017-11-24T21:13:46.959Z,87.90
2017-11-24T21:16:19.325Z,89.10
2017-11-24T21:18:52.731Z,89.20
2017-11-24T21:21:26.317Z,89.60
2017-11-24T21:23:59.012Z,88.90
2017-11-24T21:26:31.343Z,89.00
2017-11-24T21:29:03.922Z,88.70
2017-11-24T21:31:36.489Z,89.20
2017-11-24T21:34:08.972Z,89.30
2017-11-24T21:36:41.431Z,88.70
2017-11-24T21:39:14.627Z,89.70
2017-11-24T21:41:47.427Z,89.20
2017-11-24T21:44:20.637Z,89.80
2017-11-24T21:46:53.263Z,90.10
2017-11-24T21:49:26.569Z,89.80
2017-11-24T21:52:00.140Z,89.70
2017-11-24T21:54:33.368Z,89.10
2017-11-24T21:57:06.632Z,89.00
2017-11-24T21:59:40.547Z,90.60
2017-11-24T22:02:13.321Z,89.60
2017-11-24T22:04:47.301Z,90.30
2017-11-24T22:07:20.045Z,90.00
2017-11-24T22:09:53.397Z,90.00
2017-11-24T22:12:25.831Z,89.20
2017-11-24T22:14:58.379Z,89.30
2017-11-24T22:17:30.881Z,89.90
2017-11-24T22:20:04.189Z,89.50
2017-11-24T22:22:37.469Z,90.00
2017-11-24T22:25:10.043Z,89.40
2017-11-24T22:27:43.129Z,90.00
2017-11-24T22:30:16.083Z,90.00
2017-11-24T22:32:49.218Z,90.00
2017-11-24T22:35:21.783Z,90.00
2017-11-24T22:37:54.903Z,90.90
2017-11-24T22:40:27.461Z,90.10
2017-11-24T22:43:00.814Z,90.20
2017-11-24T22:45:33.384Z,90.20
2017-11-24T22:48:06.645Z,90.30
2017-11-24T22:50:39.319Z,90.30
2017-11-24T22:53:11.930Z,90.20
2017-11-24T22:55:44.710Z,90.00
2017-11-24T22:58:18.788Z,90.60
2017-11-24T23:00:52.063Z,89.70
2017-11-24T23:03:25.469Z,90.20
2017-11-24T23:05:58.140Z,89.90
2017-11-24T23:08:31.379Z,89.70
2017-11-24T23:11:04.771Z,89.90
2017-11-24T23:13:37.430Z,90.00
2017-11-24T23:16:09.793Z,90.10
2017-11-24T23:18:42.221Z,90.20
2017-11-24T23:21:14.868Z,90.20
2017-11-24T23:23:47.317Z,90.20
2017-11-24T23:26:20.428Z,90.20
2017-11-24T23:28:54.108Z,90.70
2017-11-24T23:31:27.303Z,90.80
2017-11-24T23:34:00.543Z,90.90
2017-11-24T23:36:34.472Z,90.50
2017-11-24T23:39:07.252Z,90.30
2017-11-24T23:41:40.054Z,90.30
2017-11-24T23:44:14.088Z,90.40
2017-11-24T23:46:47.596Z,90.90
2017-11-24T23:49:21.048Z,90.40
2017-11-24T23:51:53.786Z,89.80
2017-11-24T23:54:26.303Z,90.00
2017-11-24T23:56:59.572Z,90.20
2017-11-24T23:59:32.210Z,90.10
